createdAt,value
2023-01-18T00:00:18.086Z,8.73
2023-01-18T00:02:46.826Z,8.57
2023-01-18T00:05:15.936Z,8.82
2023-01-18T00:07:43.581Z,8.45
2023-01-18T00:10:12.196Z,9.13
2023-01-18T00:12:39.858Z,8.85
2023-01-18T00:15:09.532Z,9.52
2023-01-18T00:17:47.559Z,10.30
2023-01-18T00:20:17.108Z,9.25
2023-01-18T00:22:44.725Z,8.93
2023-01-18T00:25:12.795Z,9.07
2023-01-18T00:27:41.010Z,8.68
2023-01-18T00:30:10.958Z,8.20
2023-01-18T00:32:38.813Z,9.70
2023-01-18T00:35:08.097Z,8.00
2023-01-18T00:37:37.877Z,9.13
2023-01-18T00:40:07.095Z,9.25
2023-01-18T00:42:52.221Z,9.82
2023-01-18T00:45:20.143Z,9.55
2023-01-18T00:47:47.754Z,9.75
2023-01-18T00:50:15.322Z,9.52
2023-01-18T00:52:46.211Z,9.35
2023-01-18T00:55:14.941Z,9.38
2023-01-18T00:57:43.159Z,9.18
2023-01-18T01:00:15.128Z,10.10
2023-01-18T01:02:43.398Z,9.55
2023-01-18T01:05:37.579Z,9.75
2023-01-18T01:08:07.648Z,9.68
2023-01-18T01:10:35.740Z,10.57
2023-01-18T01:13:21.126Z,9.77
2023-01-18T01:16:06.377Z,9.75
2023-01-18T01:18:51.492Z,8.95
2023-01-18T01:21:36.855Z,9.52
2023-01-18T01:24:23.578Z,10.10
2023-01-18T01:26:51.127Z,9.18
2023-01-18T01:29:18.677Z,9.25
2023-01-18T01:31:46.217Z,9.02
2023-01-18T01:34:14.160Z,10.45
2023-01-18T01:36:41.866Z,9.93
2023-01-18T01:39:11.031Z,10.05
2023-01-18T01:41:38.978Z,9.88
2023-01-18T01:44:40.070Z,10.25
2023-01-18T01:47:13.757Z,10.65
2023-01-18T01:49:44.872Z,10.30
2023-01-18T01:52:15.731Z,9.70
2023-01-18T01:54:49.428Z,9.48
2023-01-18T01:57:21.545Z,9.98
2023-01-18T01:59:53.984Z,10.05
2023-01-18T02:02:21.892Z,10.40
2023-01-18T02:04:53.626Z,10.13
2023-01-18T02:07:21.746Z,10.07
2023-01-18T02:09:51.332Z,10.48
2023-01-18T02:12:19.230Z,10.02
2023-01-18T02:14:47.488Z,10.23
2023-01-18T02:17:28.245Z,10.18
2023-01-18T02:20:21.598Z,10.27
2023-01-18T02:23:14.238Z,10.52
2023-01-18T02:26:02.870Z,10.02
2023-01-18T02:28:35.065Z,10.70
2023-01-18T02:31:11.212Z,10.57
2023-01-18T02:33:44.904Z,10.07
2023-01-18T02:36:22.149Z,11.57
2023-01-18T02:38:55.531Z,9.32
2023-01-18T02:41:51.770Z,10.55
2023-01-18T02:44:55.493Z,9.52
2023-01-18T02:47:24.350Z,10.50
2023-01-18T02:49:51.897Z,9.82
2023-01-18T02:52:40.104Z,9.60
2023-01-18T02:55:13.421Z,10.23
2023-01-18T02:57:41.327Z,10.07
2023-01-18T03:00:17.436Z,10.10
2023-01-18T03:02:47.311Z,9.93
2023-01-18T03:05:15.373Z,10.07
2023-01-18T03:07:49.916Z,9.93
2023-01-18T03:10:17.993Z,9.45
2023-01-18T03:12:53.972Z,9.80
2023-01-18T03:15:28.248Z,10.55
2023-01-18T03:17:58.215Z,10.32
2023-01-18T03:20:29.905Z,10.10
2023-01-18T03:23:20.316Z,10.88
2023-01-18T03:25:50.818Z,10.05
2023-01-18T03:28:40.531Z,10.63
2023-01-18T03:31:29.701Z,10.13
2023-01-18T03:34:02.588Z,10.75
2023-01-18T03:36:33.830Z,10.55
2023-01-18T03:39:04.606Z,10.75
2023-01-18T03:41:36.965Z,11.35
2023-01-18T03:44:08.573Z,10.63
2023-01-18T03:46:38.885Z,10.68
2023-01-18T03:49:07.536Z,10.30
2023-01-18T03:51:49.430Z,10.63
2023-01-18T03:54:21.907Z,10.38
2023-01-18T03:56:54.900Z,10.57
2023-01-18T03:59:22.532Z,10.07
2023-01-18T04:01:51.447Z,9.80
2023-01-18T04:04:19.113Z,10.02
2023-01-18T04:06:46.690Z,9.93
2023-01-18T04:09:14.437Z,11.32
2023-01-18T04:11:41.942Z,10.68
2023-01-18T04:14:09.741Z,11.48
2023-01-18T04:16:37.266Z,11.77
2023-01-18T04:19:07.339Z,11.05
2023-01-18T04:21:34.893Z,11.27
2023-01-18T04:24:02.428Z,10.52
2023-01-18T04:26:30.014Z,10.73
2023-01-18T04:28:57.541Z,10.73
2023-01-18T04:31:25.264Z,10.77
2023-01-18T04:33:52.947Z,11.00
2023-01-18T04:36:22.496Z,11.00
2023-01-18T04:38:53.799Z,11.32
2023-01-18T04:41:21.358Z,11.30
2023-01-18T04:43:48.922Z,13.05
2023-01-18T04:46:16.726Z,12.07
2023-01-18T04:48:44.353Z,10.85
2023-01-18T04:51:13.157Z,10.88
2023-01-18T04:53:42.944Z,11.30
2023-01-18T04:56:11.408Z,11.07
2023-01-18T04:58:39.586Z,10.90
2023-01-18T05:01:09.594Z,11.00
2023-01-18T05:03:38.390Z,10.48
2023-01-18T05:06:07.882Z,10.82
2023-01-18T05:08:35.906Z,11.00
2023-01-18T05:11:06.842Z,10.80
2023-01-18T05:13:34.394Z,10.55
2023-01-18T05:16:06.033Z,11.55
2023-01-18T05:18:33.858Z,11.32
2023-01-18T05:21:01.456Z,11.40
2023-01-18T05:23:29.084Z,10.93
2023-01-18T05:25:57.768Z,10.57
2023-01-18T05:28:28.371Z,10.95
2023-01-18T05:30:56.151Z,11.70
2023-01-18T05:33:24.374Z,11.60
2023-01-18T05:35:53.103Z,12.18
2023-01-18T05:38:21.528Z,11.85
2023-01-18T05:40:52.236Z,12.50
2023-01-18T05:43:20.195Z,12.35
2023-01-18T05:45:49.328Z,12.00
2023-01-18T05:48:17.029Z,13.13
2023-01-18T05:50:46.362Z,11.10
2023-01-18T05:53:16.273Z,11.98
2023-01-18T05:55:44.535Z,12.88
2023-01-18T05:58:12.523Z,11.27
2023-01-18T06:00:40.180Z,12.32
2023-01-18T06:03:10.754Z,11.82
2023-01-18T06:05:38.435Z,12.13
2023-01-18T06:08:06.705Z,12.98
2023-01-18T06:10:34.425Z,12.30
2023-01-18T06:13:01.978Z,12.63
2023-01-18T06:15:29.608Z,12.27
2023-01-18T06:17:59.279Z,11.63
2023-01-18T06:20:30.367Z,11.48
2023-01-18T06:22:58.859Z,12.15
2023-01-18T06:25:27.118Z,13.68
2023-01-18T06:27:54.747Z,12.35
2023-01-18T06:30:22.723Z,11.85
2023-01-18T06:32:51.220Z,11.93
2023-01-18T06:35:18.835Z,11.57
2023-01-18T06:37:47.781Z,11.75
2023-01-18T06:40:15.661Z,11.15
2023-01-18T06:42:43.314Z,11.73
2023-01-18T06:45:11.446Z,11.35
2023-01-18T06:47:39.148Z,11.63
2023-01-18T06:50:08.121Z,11.63
2023-01-18T06:52:35.697Z,11.00
2023-01-18T06:55:05.177Z,11.70
2023-01-18T06:57:32.805Z,11.85
2023-01-18T07:00:01.901Z,12.10
2023-01-18T07:02:29.674Z,11.95
2023-01-18T07:04:57.223Z,11.02
2023-01-18T07:07:24.878Z,11.88
2023-01-18T07:09:52.711Z,11.98
2023-01-18T07:12:21.708Z,10.70
2023-01-18T07:14:49.284Z,12.05
2023-01-18T07:17:16.918Z,11.43
2023-01-18T07:19:45.246Z,11.90
2023-01-18T07:22:13.482Z,11.07
2023-01-18T07:24:41.072Z,11.50
2023-01-18T07:27:08.616Z,11.45
2023-01-18T07:29:38.045Z,11.68
2023-01-18T07:32:06.133Z,12.05
2023-01-18T07:34:33.672Z,11.15
2023-01-18T07:37:01.476Z,12.30
2023-01-18T07:39:29.160Z,11.57
2023-01-18T07:41:56.720Z,10.77
2023-01-18T07:44:24.377Z,12.02
2023-01-18T07:48:01.650Z,11.43
2023-01-18T07:50:29.321Z,11.57
2023-01-18T07:52:57.265Z,11.95
2023-01-18T07:55:25.023Z,12.30
2023-01-18T07:57:52.546Z,11.98
2023-01-18T08:00:21.343Z,12.32
2023-01-18T08:02:51.331Z,12.65
2023-01-18T08:05:23.824Z,12.20
2023-01-18T08:07:53.513Z,12.27
2023-01-18T08:10:21.319Z,11.95
2023-01-18T08:12:48.915Z,12.25
2023-01-18T08:15:16.839Z,14.20
2023-01-18T08:17:44.387Z,13.80
2023-01-18T08:20:13.298Z,15.45
2023-01-18T08:22:42.169Z,14.30
2023-01-18T08:25:10.944Z,13.43
2023-01-18T08:27:38.855Z,14.23
2023-01-18T08:30:08.120Z,13.90
2023-01-18T08:32:35.691Z,13.90
2023-01-18T08:35:03.238Z,12.20
2023-01-18T08:37:30.819Z,13.00
2023-01-18T08:39:59.791Z,14.07
2023-01-18T08:42:27.379Z,13.07
2023-01-18T08:44:55.106Z,12.73
2023-01-18T08:47:22.858Z,11.82
2023-01-18T08:49:50.388Z,12.30
2023-01-18T08:52:17.948Z,13.75
2023-01-18T08:54:45.527Z,11.77
2023-01-18T08:57:14.355Z,13.32
2023-01-18T08:59:41.903Z,12.02
2023-01-18T09:02:10.601Z,12.32
2023-01-18T09:04:38.206Z,11.95
2023-01-18T09:07:05.712Z,11.73
2023-01-18T09:09:33.252Z,12.60
2023-01-18T09:12:00.828Z,12.88
2023-01-18T09:14:29.694Z,12.77
2023-01-18T09:16:57.663Z,11.70
2023-01-18T09:19:25.224Z,13.07
2023-01-18T09:21:52.780Z,12.70
2023-01-18T09:24:20.337Z,11.70
2023-01-18T09:26:51.670Z,13.27
2023-01-18T09:29:19.350Z,13.35
2023-01-18T09:31:49.115Z,13.55
2023-01-18T09:34:19.994Z,14.05
2023-01-18T09:36:50.628Z,13.20
2023-01-18T09:39:18.528Z,13.98
2023-01-18T09:41:52.437Z,13.73
2023-01-18T09:44:25.266Z,13.98
2023-01-18T09:46:56.178Z,13.48
2023-01-18T09:49:29.418Z,14.45
2023-01-18T09:52:05.796Z,14.10
2023-01-18T09:54:40.746Z,13.77
2023-01-18T09:57:20.775Z,12.93
2023-01-18T09:59:54.952Z,13.15
2023-01-18T10:02:26.989Z,13.77
2023-01-18T10:04:57.812Z,11.68
2023-01-18T10:07:28.861Z,10.73
2023-01-18T10:09:59.723Z,9.95
2023-01-18T10:12:34.710Z,9.60
2023-01-18T10:15:10.358Z,9.60
2023-01-18T10:17:42.044Z,10.68
2023-01-18T10:20:16.413Z,9.25
2023-01-18T10:22:49.430Z,9.60
2023-01-18T10:25:22.410Z,9.43
2023-01-18T10:28:13.756Z,10.80
2023-01-18T10:30:57.137Z,10.80
2023-01-18T10:33:28.340Z,10.55
2023-01-18T10:35:59.133Z,10.02
2023-01-18T10:38:28.577Z,10.35
2023-01-18T10:40:58.801Z,10.07
2023-01-18T10:43:28.673Z,9.63
2023-01-18T10:45:56.975Z,9.40
2023-01-18T10:48:29.034Z,9.88
2023-01-18T10:50:59.374Z,10.38
2023-01-18T10:53:32.565Z,9.55
2023-01-18T10:56:03.457Z,9.93
2023-01-18T10:58:35.749Z,10.05
2023-01-18T11:01:04.296Z,10.50
2023-01-18T11:03:39.629Z,9.82
2023-01-18T11:06:08.831Z,9.43
2023-01-18T11:08:36.977Z,10.63
2023-01-18T11:11:06.802Z,9.57
2023-01-18T11:13:42.455Z,9.75
2023-01-18T11:16:13.992Z,10.10
2023-01-18T11:19:00.985Z,9.70
2023-01-18T11:21:33.569Z,10.85
2023-01-18T11:24:07.612Z,9.68
2023-01-18T11:26:35.459Z,9.98
2023-01-18T11:29:05.780Z,10.13
2023-01-18T11:31:45.774Z,9.90
2023-01-18T11:34:23.905Z,10.43
2023-01-18T11:36:51.397Z,10.55
2023-01-18T11:39:24.689Z,10.43
2023-01-18T11:41:52.664Z,10.18
2023-01-18T11:44:24.394Z,9.88
2023-01-18T11:46:54.542Z,11.15
2023-01-18T11:49:29.925Z,9.25
2023-01-18T11:52:02.724Z,9.77
2023-01-18T11:54:36.249Z,10.02
2023-01-18T11:57:04.590Z,9.65
2023-01-18T11:59:35.439Z,10.60
2023-01-18T12:02:30.684Z,9.68
2023-01-18T12:05:17.677Z,11.45
2023-01-18T12:07:53.865Z,11.43
2023-01-18T12:10:23.564Z,10.25
2023-01-18T12:13:07.393Z,11.30
2023-01-18T12:15:53.116Z,9.70
2023-01-18T12:18:33.704Z,9.65
2023-01-18T12:21:06.298Z,10.68
2023-01-18T12:24:03.103Z,10.57
2023-01-18T12:26:48.217Z,10.20
2023-01-18T12:29:54.531Z,10.25
2023-01-18T12:32:32.223Z,9.40
2023-01-18T12:35:25.008Z,9.48
2023-01-18T12:38:06.319Z,10.20
2023-01-18T12:40:50.543Z,9.77
2023-01-18T12:43:38.631Z,9.65
2023-01-18T12:46:09.905Z,9.65
2023-01-18T12:48:46.795Z,9.50
2023-01-18T12:51:17.128Z,8.60
2023-01-18T12:53:49.972Z,10.30
2023-01-18T12:56:23.551Z,9.18
2023-01-18T12:58:55.363Z,9.10
2023-01-18T13:01:25.799Z,8.45
2023-01-18T13:03:59.105Z,8.27
2023-01-18T13:06:28.553Z,9.18
2023-01-18T13:09:01.739Z,9.50
2023-01-18T13:11:33.479Z,10.18
2023-01-18T13:14:10.249Z,9.43
2023-01-18T13:16:45.225Z,9.07
2023-01-18T13:19:18.040Z,9.05
2023-01-18T13:21:59.995Z,9.13
2023-01-18T13:24:40.769Z,8.23
2023-01-18T13:27:10.021Z,7.93
2023-01-18T13:29:38.367Z,8.05
2023-01-18T13:32:27.292Z,8.20
2023-01-18T13:35:18.494Z,7.90
2023-01-18T13:37:50.092Z,7.82
2023-01-18T13:40:35.373Z,8.98
2023-01-18T13:43:03.511Z,7.88
2023-01-18T13:45:31.803Z,8.70
2023-01-18T13:48:03.401Z,8.10
2023-01-18T13:50:48.097Z,8.98
2023-01-18T13:53:31.702Z,8.52
2023-01-18T13:56:29.399Z,8.10
2023-01-18T13:59:00.386Z,8.13
2023-01-18T14:01:33.411Z,6.97
2023-01-18T14:04:09.397Z,8.75
2023-01-18T14:06:38.968Z,7.75
2023-01-18T14:09:08.429Z,8.00
2023-01-18T14:11:41.956Z,7.70
2023-01-18T14:14:26.184Z,7.63
2023-01-18T14:16:59.787Z,7.90
2023-01-18T14:19:29.426Z,8.57
2023-01-18T14:22:26.637Z,7.38
2023-01-18T14:25:11.429Z,8.77
2023-01-18T14:27:44.768Z,7.93
2023-01-18T14:30:18.863Z,7.70
2023-01-18T14:32:54.711Z,8.07
2023-01-18T14:35:25.748Z,9.20
2023-01-18T14:37:54.112Z,9.23
2023-01-18T14:40:23.871Z,8.45
2023-01-18T14:42:56.136Z,7.95
2023-01-18T14:45:28.888Z,7.50
2023-01-18T14:47:58.498Z,7.43
2023-01-18T14:50:27.558Z,7.68
2023-01-18T14:52:55.320Z,8.18
2023-01-18T14:55:31.374Z,9.48
2023-01-18T14:58:10.751Z,8.02
2023-01-18T15:00:44.402Z,7.40
2023-01-18T15:03:21.644Z,8.30
2023-01-18T15:05:56.821Z,8.27
2023-01-18T15:08:27.987Z,7.90
2023-01-18T15:10:55.685Z,8.25
2023-01-18T15:13:27.491Z,7.95
2023-01-18T15:15:58.235Z,8.02
2023-01-18T15:18:29.583Z,8.43
2023-01-18T15:20:59.163Z,8.75
2023-01-18T15:23:28.130Z,8.60
2023-01-18T15:25:56.855Z,8.98
2023-01-18T15:28:31.521Z,8.45
2023-01-18T15:30:59.118Z,7.72
2023-01-18T15:33:27.954Z,9.38
2023-01-18T15:35:58.771Z,7.68
2023-01-18T15:38:26.330Z,7.93
2023-01-18T15:40:58.414Z,8.95
2023-01-18T15:43:33.718Z,8.30
2023-01-18T15:46:02.115Z,7.88
2023-01-18T15:48:40.477Z,8.60
2023-01-18T15:51:10.957Z,10.05
2023-01-18T15:53:45.694Z,8.18
2023-01-18T15:56:17.772Z,8.63
2023-01-18T15:58:49.863Z,7.65
2023-01-18T16:01:20.523Z,8.02
2023-01-18T16:03:59.933Z,7.97
2023-01-18T16:06:35.869Z,8.95
2023-01-18T16:09:11.556Z,8.45
2023-01-18T16:11:46.339Z,9.27
2023-01-18T16:14:24.466Z,9.48
2023-01-18T16:16:53.836Z,9.18
2023-01-18T16:19:28.323Z,9.65
2023-01-18T16:21:59.565Z,9.48
2023-01-18T16:24:36.966Z,10.30
2023-01-18T16:27:12.802Z,8.85
2023-01-18T16:29:44.839Z,10.00
2023-01-18T16:32:28.905Z,9.38
2023-01-18T16:34:58.760Z,10.05
2023-01-18T16:37:26.322Z,9.85
2023-01-18T16:39:55.356Z,9.90
2023-01-18T16:42:29.669Z,10.43
2023-01-18T16:45:02.352Z,10.63
2023-01-18T16:47:29.873Z,10.45
2023-01-18T16:49:59.151Z,10.43
2023-01-18T16:52:27.372Z,10.38
2023-01-18T16:54:55.142Z,10.27
2023-01-18T16:57:24.592Z,11.25
2023-01-18T16:59:52.201Z,10.05
2023-01-18T17:02:21.983Z,10.02
2023-01-18T17:04:50.065Z,10.18
2023-01-18T17:07:17.637Z,9.73
2023-01-18T17:09:49.020Z,10.65
2023-01-18T17:12:17.123Z,10.57
2023-01-18T17:14:44.613Z,10.75
2023-01-18T17:17:12.222Z,9.93
2023-01-18T17:19:43.876Z,9.55
2023-01-18T17:22:11.544Z,10.07
2023-01-18T17:24:39.321Z,9.85
2023-01-18T17:27:09.941Z,12.20
2023-01-18T17:29:37.534Z,9.30
2023-01-18T17:32:06.308Z,9.82
2023-01-18T17:34:33.831Z,10.48
2023-01-18T17:37:03.157Z,10.43
2023-01-18T17:39:42.600Z,10.43
2023-01-18T17:42:22.880Z,9.70
2023-01-18T17:45:02.684Z,10.85
2023-01-18T17:47:31.004Z,10.48
2023-01-18T17:49:58.543Z,11.15
2023-01-18T17:52:28.251Z,9.73
2023-01-18T17:54:55.810Z,10.07
2023-01-18T17:57:23.440Z,10.93
2023-01-18T17:59:55.549Z,10.70
2023-01-18T18:02:23.966Z,10.15
2023-01-18T18:04:52.059Z,10.48
2023-01-18T18:07:19.778Z,10.32
2023-01-18T18:09:48.726Z,10.82
2023-01-18T18:12:16.358Z,10.68
2023-01-18T18:14:43.941Z,10.68
2023-01-18T18:17:11.482Z,10.25
2023-01-18T18:19:39.053Z,10.73
2023-01-18T18:22:06.992Z,11.48
2023-01-18T18:24:34.544Z,10.75
2023-01-18T18:27:03.541Z,11.80
2023-01-18T18:29:31.112Z,10.38
2023-01-18T18:31:58.739Z,9.82
2023-01-18T18:34:26.635Z,10.75
2023-01-18T18:36:54.189Z,10.93
2023-01-18T18:39:21.998Z,10.07
2023-01-18T18:41:49.723Z,10.32
2023-01-18T18:44:18.637Z,10.38
2023-01-18T18:46:46.320Z,10.38
2023-01-18T18:49:14.055Z,10.48
2023-01-18T18:51:41.618Z,10.68
2023-01-18T18:54:11.398Z,11.45
2023-01-18T18:56:39.113Z,10.43
2023-01-18T18:59:06.622Z,10.93
2023-01-18T19:01:35.623Z,10.93
2023-01-18T19:04:04.392Z,10.57
2023-01-18T19:06:32.018Z,10.98
2023-01-18T19:08:59.644Z,11.98
2023-01-18T19:11:27.510Z,11.43
2023-01-18T19:13:56.602Z,10.93
2023-01-18T19:16:24.427Z,10.10
2023-01-18T19:18:53.571Z,10.90
2023-01-18T19:21:21.152Z,11.82
2023-01-18T19:23:49.028Z,10.90
2023-01-18T19:26:18.166Z,12.13
2023-01-18T19:28:47.113Z,12.13
2023-01-18T19:31:14.722Z,11.68
2023-01-18T19:33:42.384Z,12.27
2023-01-18T19:36:16.503Z,10.93
2023-01-18T19:38:49.200Z,11.63
2023-01-18T19:41:20.220Z,10.32
2023-01-18T19:43:49.743Z,10.60
2023-01-18T19:46:18.009Z,11.05
2023-01-18T19:48:45.556Z,10.25
2023-01-18T19:51:22.419Z,11.13
2023-01-18T19:53:51.102Z,11.52
2023-01-18T19:56:18.692Z,11.25
2023-01-18T19:58:46.396Z,10.60
2023-01-18T20:01:26.688Z,10.80
2023-01-18T20:04:01.982Z,11.27
2023-01-18T20:06:30.943Z,11.50
2023-01-18T20:08:58.978Z,11.15
2023-01-18T20:11:26.629Z,11.82
2023-01-18T20:13:54.321Z,11.60
2023-01-18T20:16:22.031Z,10.80
2023-01-18T20:18:50.042Z,10.90
2023-01-18T20:21:19.073Z,10.57
2023-01-18T20:23:48.477Z,11.13
2023-01-18T20:26:24.779Z,10.68
2023-01-18T20:29:02.809Z,11.00
2023-01-18T20:31:30.457Z,11.35
2023-01-18T20:33:58.026Z,10.57
2023-01-18T20:36:25.542Z,11.45
2023-01-18T20:38:54.749Z,10.88
2023-01-18T20:41:22.350Z,11.05
2023-01-18T20:43:49.984Z,10.73
2023-01-18T20:46:17.746Z,11.13
2023-01-18T20:48:45.552Z,10.93
2023-01-18T20:51:13.181Z,10.82
2023-01-18T20:53:40.723Z,10.65
2023-01-18T20:56:23.437Z,11.35
2023-01-18T20:58:55.653Z,9.38
2023-01-18T21:01:23.642Z,10.52
2023-01-18T21:03:55.016Z,10.18
2023-01-18T21:06:22.716Z,9.98
2023-01-18T21:08:52.345Z,9.88
2023-01-18T21:11:22.874Z,10.75
2023-01-18T21:13:50.763Z,9.43
2023-01-18T21:16:18.558Z,10.20
2023-01-18T21:18:46.183Z,9.95
2023-01-18T21:21:13.995Z,9.95
2023-01-18T21:23:41.693Z,9.88
2023-01-18T21:26:11.818Z,9.05
2023-01-18T21:28:41.119Z,10.35
2023-01-18T21:31:09.149Z,11.27
2023-01-18T21:33:36.868Z,10.65
2023-01-18T21:36:05.835Z,10.38
2023-01-18T21:38:34.193Z,10.13
2023-01-18T21:41:22.083Z,9.80
2023-01-18T21:44:11.360Z,10.02
2023-01-18T21:46:39.339Z,9.05
2023-01-18T21:49:07.613Z,9.32
2023-01-18T21:51:52.784Z,9.43
2023-01-18T21:54:22.145Z,9.30
2023-01-18T21:56:51.959Z,9.93
2023-01-18T21:59:20.901Z,9.73
2023-01-18T22:01:48.610Z,10.65
2023-01-18T22:04:34.576Z,10.45
2023-01-18T22:07:04.206Z,8.98
2023-01-18T22:09:32.994Z,9.55
2023-01-18T22:12:01.105Z,9.80
2023-01-18T22:14:30.084Z,9.38
2023-01-18T22:16:57.983Z,8.98
2023-01-18T22:19:25.734Z,9.52
2023-01-18T22:21:53.348Z,9.70
2023-01-18T22:24:21.080Z,8.82
2023-01-18T22:26:48.681Z,9.65
2023-01-18T22:29:16.405Z,10.32
2023-01-18T22:31:45.341Z,10.02
2023-01-18T22:34:19.173Z,9.80
2023-01-18T22:36:47.092Z,9.50
2023-01-18T22:39:15.006Z,10.13
2023-01-18T22:41:43.244Z,9.00
2023-01-18T22:44:12.542Z,10.10
2023-01-18T22:46:40.127Z,9.65
2023-01-18T22:49:09.037Z,10.18
2023-01-18T22:51:36.843Z,9.68
2023-01-18T22:54:04.609Z,9.60
2023-01-18T22:56:32.202Z,9.45
2023-01-18T22:59:00.415Z,10.38
2023-01-18T23:01:30.807Z,10.25
2023-01-18T23:04:00.372Z,10.40
2023-01-18T23:06:42.174Z,10.90
2023-01-18T23:09:10.700Z,11.40
2023-01-18T23:11:39.103Z,10.68
2023-01-18T23:14:24.487Z,10.50
2023-01-18T23:17:10.178Z,10.07
2023-01-18T23:19:37.950Z,11.60
2023-01-18T23:22:07.741Z,10.80
2023-01-18T23:24:36.505Z,11.75
2023-01-18T23:27:05.191Z,11.07
2023-01-18T23:29:32.828Z,10.63
2023-01-18T23:32:00.872Z,11.93
2023-01-18T23:34:28.523Z,12.15
2023-01-18T23:36:56.130Z,12.23
2023-01-18T23:39:42.574Z,12.07
2023-01-18T23:42:27.561Z,11.18
2023-01-18T23:45:12.626Z,10.43
2023-01-18T23:47:58.375Z,11.80
2023-01-18T23:50:44.070Z,11.80
2023-01-18T23:53:30.907Z,11.15
2023-01-18T23:56:00.121Z,12.25
2023-01-18T23:58:28.183Z,11.40
